Time;durP1;ratioP1;P1;durP2;ratioP2;P2;SDS_P1;SDS_P2;PMS_P1;PMS_P2;Temp;Humidity;BMP_temperature;BMP_pressure;BME280_temperature;BME280_humidity;BME280_pressure;Samples;Min_cycle;Max_cycle;Signal;HPM_P1;HPM_P2
2023/10/27 00:00:08;;;;;;;4.70;0.70;;;15.50;74.10;;;;;;2515372;55;21006;-69
2023/10/27 00:02:38;;;;;;;1.77;0.60;;;15.50;74.10;;;;;;2281002;55;20965;-70
2023/10/27 00:05:06;;;;;;;3.37;0.90;;;15.50;74.10;;;;;;2283326;55;21617;-69
2023/10/27 00:07:35;;;;;;;4.15;0.80;;;15.50;74.20;;;;;;2507131;54;20946;-72
2023/10/27 00:10:02;;;;;;;3.65;0.77;;;15.40;73.90;;;;;;2514100;55;21019;-70
2023/10/27 00:12:29;;;;;;;3.12;0.70;;;15.40;74.00;;;;;;2513522;55;21145;-71
2023/10/27 00:14:55;;;;;;;3.00;0.60;;;15.40;74.00;;;;;;2282438;55;21115;-71
2023/10/27 00:17:22;;;;;;;4.75;0.73;;;15.40;74.00;;;;;;2281321;55;21899;-72
2023/10/27 00:19:49;;;;;;;3.50;0.80;;;15.40;74.10;;;;;;2281223;56;20950;-71
2023/10/27 00:22:17;;;;;;;1.70;0.55;;;15.40;74.00;;;;;;2505900;54;21005;-72
2023/10/27 00:24:45;;;;;;;2.65;0.70;;;15.40;74.00;;;;;;2514497;55;20951;-71
2023/10/27 00:27:12;;;;;;;6.18;0.85;;;15.20;73.80;;;;;;2514991;55;20934;-69
2023/10/27 00:29:40;;;;;;;2.58;0.52;;;15.40;74.10;;;;;;2514605;55;20973;-69
2023/10/27 00:32:06;;;;;;;1.85;0.55;;;15.40;74.10;;;;;;2514687;55;20966;-71
2023/10/27 00:34:33;;;;;;;4.03;0.93;;;15.40;74.10;;;;;;2514799;55;20953;-70
2023/10/27 00:37:01;;;;;;;2.45;0.80;;;15.30;74.00;;;;;;2281916;55;20985;-70
2023/10/27 00:39:32;;;;;;;2.22;0.50;;;15.40;74.20;;;;;;2515825;54;20926;-70
2023/10/27 00:42:01;;;;;;;4.18;0.65;;;15.30;74.00;;;;;;2508269;55;21022;-70
2023/10/27 00:44:28;;;;;;;4.50;0.77;;;15.30;74.10;;;;;;2278149;56;21021;-72
2023/10/27 00:46:56;;;;;;;1.87;0.50;;;15.30;74.10;;;;;;2281495;55;21870;-69
2023/10/27 00:49:22;;;;;;;2.28;0.52;;;15.30;74.20;;;;;;2282359;55;20934;-71
2023/10/27 00:51:49;;;;;;;3.17;0.60;;;15.30;74.30;;;;;;2281445;54;21013;-72
2023/10/27 00:54:18;;;;;;;1.48;0.45;;;15.30;74.30;;;;;;2505047;55;20983;-71
2023/10/27 00:56:46;;;;;;;2.00;0.50;;;15.30;74.30;;;;;;2279647;56;21045;-71
2023/10/27 00:59:13;;;;;;;2.90;0.60;;;15.30;74.30;;;;;;2277641;55;21042;-71
2023/10/27 01:01:42;;;;;;;3.95;0.70;;;15.30;74.30;;;;;;2275541;54;20955;-71
2023/10/27 01:04:08;;;;;;;2.15;0.57;;;15.30;74.30;;;;;;2282762;55;20965;-69
2023/10/27 01:06:35;;;;;;;2.28;0.50;;;15.30;74.30;;;;;;2281245;56;21009;-68
2023/10/27 01:09:01;;;;;;;1.77;0.47;;;15.30;74.30;;;;;;2281550;55;21615;-69
2023/10/27 01:11:28;;;;;;;2.30;0.40;;;15.30;74.20;;;;;;2281093;56;20962;-72
2023/10/27 01:13:55;;;;;;;1.17;0.40;;;15.30;74.20;;;;;;2254663;56;20914;-74
2023/10/27 01:16:22;;;;;;;2.10;0.60;;;15.30;74.20;;;;;;2514802;55;20930;-72
2023/10/27 01:18:48;;;;;;;6.10;0.70;;;15.30;74.20;;;;;;2280805;55;21025;-71
2023/10/27 01:21:16;;;;;;;2.42;0.52;;;15.30;74.10;;;;;;2515330;55;21017;-70
2023/10/27 01:23:43;;;;;;;1.27;0.37;;;15.30;74.10;;;;;;2513426;55;20969;-69
2023/10/27 01:26:09;;;;;;;1.83;0.50;;;15.30;74.20;;;;;;2514385;55;20994;-69
2023/10/27 01:28:35;;;;;;;1.27;0.40;;;15.30;74.20;;;;;;2514574;55;21782;-71
2023/10/27 01:31:05;;;;;;;1.20;0.47;;;15.30;74.20;;;;;;2281653;55;20985;-72
2023/10/27 01:33:34;;;;;;;4.80;0.60;;;15.30;74.20;;;;;;2281442;56;21022;-70
2023/10/27 01:36:00;;;;;;;1.77;0.43;;;15.30;74.20;;;;;;2513667;54;21417;-71
2023/10/27 01:38:27;;;;;;;2.00;0.50;;;15.30;74.20;;;;;;2514970;55;21478;-70
2023/10/27 01:40:53;;;;;;;2.70;0.60;;;15.30;74.20;;;;;;2281293;55;21048;-69
2023/10/27 01:43:20;;;;;;;2.15;0.50;;;15.30;74.30;;;;;;2278349;55;21086;-69
2023/10/27 01:45:47;;;;;;;2.25;0.52;;;15.30;74.30;;;;;;2279514;55;21042;-69
2023/10/27 01:48:14;;;;;;;7.53;0.55;;;15.30;74.20;;;;;;2283312;55;21037;-68
2023/10/27 01:50:41;;;;;;;3.87;0.50;;;15.30;74.20;;;;;;2513584;55;20941;-73
2023/10/27 01:53:08;;;;;;;2.17;0.47;;;15.30;74.20;;;;;;2505757;55;21003;-70
2023/10/27 01:55:35;;;;;;;4.12;0.90;;;15.30;74.20;;;;;;2281966;55;21037;-70
2023/10/27 01:58:02;;;;;;;2.40;0.60;;;15.30;74.10;;;;;;2281392;55;20950;-72
2023/10/27 02:00:28;;;;;;;2.58;0.50;;;15.20;74.70;;;;;;2281935;55;21388;-71
2023/10/27 02:02:55;;;;;;;1.58;0.40;;;15.30;74.20;;;;;;2513436;55;20978;-72
2023/10/27 02:05:22;;;;;;;2.15;0.50;;;15.20;74.10;;;;;;2513957;55;21169;-71
2023/10/27 02:07:48;;;;;;;1.00;0.32;;;15.20;74.10;;;;;;2513379;55;20985;-70
2023/10/27 02:10:15;;;;;;;0.73;0.30;;;15.20;74.20;;;;;;2284867;55;21059;-71
2023/10/27 02:12:42;;;;;;;2.17;0.40;;;15.20;74.20;;;;;;2488758;55;20999;-73
2023/10/27 02:15:09;;;;;;;1.55;0.40;;;15.20;74.20;;;;;;2269732;55;20962;-72
2023/10/27 02:17:38;;;;;;;2.20;0.62;;;15.20;74.20;;;;;;2280899;56;21089;-70
2023/10/27 02:20:06;;;;;;;1.83;0.40;;;15.20;74.20;;;;;;2513951;55;21422;-72
2023/10/27 02:22:32;;;;;;;3.25;0.65;;;15.20;74.10;;;;;;2281341;55;20958;-71
2023/10/27 02:25:07;;;;;;;0.95;0.35;;;15.20;74.20;;;;;;2281035;56;21037;-73
2023/10/27 02:27:38;;;;;;;1.60;0.40;;;15.20;74.20;;;;;;2514313;55;21356;-73
2023/10/27 02:30:06;;;;;;;1.42;0.45;;;15.20;74.20;;;;;;2514101;55;20986;-72
2023/10/27 02:32:33;;;;;;;1.77;0.52;;;15.20;74.10;;;;;;2297414;55;20954;-70
2023/10/27 02:35:01;;;;;;;3.65;0.50;;;15.20;74.20;;;;;;2513475;55;20985;-71
2023/10/27 02:37:28;;;;;;;1.70;0.40;;;15.20;74.20;;;;;;2290268;55;20941;-68
2023/10/27 02:39:54;;;;;;;2.47;0.52;;;15.20;74.20;;;;;;2289469;54;20930;-73
2023/10/27 02:42:22;;;;;;;1.52;0.43;;;15.20;74.30;;;;;;2276584;55;20968;-73
2023/10/27 02:44:48;;;;;;;1.85;0.50;;;15.20;74.20;;;;;;2504048;54;20929;-73
2023/10/27 02:47:15;;;;;;;1.45;0.30;;;15.20;74.20;;;;;;2293227;54;20940;-71
2023/10/27 02:49:42;;;;;;;3.10;0.60;;;15.20;74.20;;;;;;2514838;55;20977;-71
2023/10/27 02:52:08;;;;;;;1.48;0.55;;;15.20;74.20;;;;;;2281210;56;21052;-71
2023/10/27 02:54:35;;;;;;;1.85;0.45;;;15.20;74.20;;;;;;2281801;55;20986;-72
2023/10/27 02:57:01;;;;;;;1.87;0.43;;;15.20;74.20;;;;;;2514395;55;20970;-72
2023/10/27 02:59:30;;;;;;;2.55;0.60;;;15.20;74.20;;;;;;2478666;55;20986;-72
2023/10/27 03:02:20;;;;;;;1.58;0.40;;;15.20;74.20;;;;;;2281912;56;21052;-70
2023/10/27 03:05:05;;;;;;;1.75;0.45;;;15.20;73.80;;;;;;2282363;55;20946;-70
2023/10/27 03:07:33;;;;;;;2.80;0.50;;;15.20;73.70;;;;;;2282076;56;21124;-72
2023/10/27 03:10:00;;;;;;;0.62;0.30;;;15.20;74.10;;;;;;2514725;55;20926;-71
2023/10/27 03:12:30;;;;;;;1.40;0.47;;;15.20;74.10;;;;;;2281510;55;21002;-72
2023/10/27 03:14:57;;;;;;;2.05;0.50;;;15.20;74.10;;;;;;2281769;55;20966;-72
2023/10/27 03:17:26;;;;;;;1.40;0.40;;;15.20;74.10;;;;;;2280280;55;20950;-72
2023/10/27 03:19:54;;;;;;;0.45;0.30;;;15.20;74.10;;;;;;2514181;55;21932;-71
2023/10/27 03:22:21;;;;;;;2.28;0.45;;;15.20;74.00;;;;;;2276878;54;21015;-70
2023/10/27 03:24:47;;;;;;;1.37;0.30;;;15.20;74.00;;;;;;2514396;55;20985;-69
2023/10/27 03:27:17;;;;;;;1.58;0.32;;;15.10;73.90;;;;;;2281693;55;20966;-72
2023/10/27 03:29:47;;;;;;;1.42;0.40;;;15.20;74.10;;;;;;2282202;56;20962;-72
2023/10/27 03:32:15;;;;;;;0.77;0.30;;;15.20;74.20;;;;;;2282051;55;21021;-72
2023/10/27 03:34:43;;;;;;;1.50;0.43;;;15.20;74.20;;;;;;2281854;56;21009;-71
2023/10/27 03:37:21;;;;;;;1.23;0.37;;;15.20;74.20;;;;;;2514089;55;21760;-70
2023/10/27 03:39:47;;;;;;;1.10;0.32;;;15.20;73.90;;;;;;2281723;56;21037;-69
2023/10/27 03:42:14;;;;;;;2.50;0.30;;;15.10;74.00;;;;;;2514907;55;21487;-69
2023/10/27 03:44:40;;;;;;;1.00;0.45;;;15.10;74.00;;;;;;2281535;56;20962;-72
2023/10/27 03:47:07;;;;;;;0.85;0.30;;;15.10;74.10;;;;;;2281526;56;21021;-70
2023/10/27 03:49:34;;;;;;;1.45;0.40;;;15.10;74.10;;;;;;2514609;54;21733;-70
2023/10/27 03:52:01;;;;;;;1.67;0.25;;;15.10;74.10;;;;;;2281536;55;20997;-69
2023/10/27 03:54:28;;;;;;;1.87;0.50;;;15.10;74.00;;;;;;2281166;55;21646;-72
2023/10/27 03:56:55;;;;;;;2.33;0.40;;;15.10;74.00;;;;;;2514273;54;20966;-72
2023/10/27 03:59:22;;;;;;;1.05;0.40;;;15.10;74.00;;;;;;2281802;55;21010;-70
2023/10/27 04:01:49;;;;;;;0.88;0.30;;;15.10;73.80;;;;;;2282415;56;21555;-71
2023/10/27 04:04:16;;;;;;;1.12;0.45;;;15.10;73.80;;;;;;2281666;56;21097;-72
2023/10/27 04:06:45;;;;;;;1.60;0.35;;;15.00;73.60;;;;;;2281746;56;20993;-71
2023/10/27 04:09:21;;;;;;;1.73;0.40;;;15.00;73.60;;;;;;2514501;55;20998;-72
2023/10/27 04:11:47;;;;;;;1.60;0.50;;;15.00;73.60;;;;;;2514737;55;20950;-70
2023/10/27 04:14:14;;;;;;;2.45;0.50;;;15.00;73.60;;;;;;2513909;55;20965;-73
2023/10/27 04:16:43;;;;;;;1.35;0.50;;;15.00;73.80;;;;;;2281586;55;21500;-72
2023/10/27 04:19:10;;;;;;;2.00;0.62;;;15.00;74.60;;;;;;2514067;55;20926;-72
2023/10/27 04:21:38;;;;;;;2.37;0.50;;;15.00;73.90;;;;;;2281776;55;20985;-70
2023/10/27 04:24:06;;;;;;;0.68;0.30;;;15.00;73.90;;;;;;2515457;55;20938;-70
2023/10/27 04:26:36;;;;;;;1.35;0.40;;;15.00;73.80;;;;;;2282111;55;21037;-73
2023/10/27 04:29:06;;;;;;;2.08;0.57;;;15.00;73.80;;;;;;2514160;55;21895;-73
2023/10/27 04:31:35;;;;;;;0.90;0.25;;;14.90;73.80;;;;;;2514312;55;21507;-71
2023/10/27 04:34:02;;;;;;;1.27;0.40;;;15.10;74.00;;;;;;2281415;55;21058;-71
2023/10/27 04:36:28;;;;;;;3.25;0.50;;;15.00;74.00;;;;;;2290079;55;21016;-70
2023/10/27 04:38:55;;;;;;;1.67;0.50;;;14.90;73.90;;;;;;2289800;55;21041;-71
2023/10/27 04:41:22;;;;;;;1.02;0.37;;;14.90;73.80;;;;;;2514729;55;21026;-70
2023/10/27 04:43:49;;;;;;;1.25;0.40;;;14.90;73.50;;;;;;2515448;55;21471;-73
2023/10/27 04:46:15;;;;;;;1.23;0.50;;;14.90;73.40;;;;;;2281881;56;20986;-72
2023/10/27 04:48:42;;;;;;;2.20;0.60;;;14.90;73.40;;;;;;2515495;55;20930;-71
2023/10/27 04:51:09;;;;;;;2.30;0.70;;;14.90;73.50;;;;;;2515343;55;20970;-71
2023/10/27 04:53:36;;;;;;;1.75;0.50;;;14.90;73.70;;;;;;2514941;55;21857;-73
2023/10/27 04:56:02;;;;;;;1.92;0.68;;;14.90;73.70;;;;;;2282528;55;20943;-70
2023/10/27 04:58:28;;;;;;;2.65;0.70;;;14.80;73.60;;;;;;2277584;55;21214;-71
2023/10/27 05:00:56;;;;;;;3.37;1.00;;;14.80;74.30;;;;;;2520631;54;21726;-69
2023/10/27 05:03:22;;;;;;;2.00;1.00;;;14.80;73.70;;;;;;2290341;54;21376;-69
2023/10/27 05:05:51;;;;;;;2.53;1.05;;;14.80;73.70;;;;;;2281779;55;20942;-73
2023/10/27 05:08:18;;;;;;;2.72;1.20;;;14.80;73.70;;;;;;2281861;56;21042;-70
2023/10/27 05:10:47;;;;;;;2.72;1.30;;;14.80;73.80;;;;;;2282139;56;20962;-69
2023/10/27 05:13:13;;;;;;;3.25;1.30;;;14.90;73.80;;;;;;2281782;55;21018;-70
2023/10/27 05:15:40;;;;;;;3.65;1.15;;;14.80;74.40;;;;;;2281423;56;20961;-72
2023/10/27 05:18:07;;;;;;;2.78;1.10;;;14.90;73.80;;;;;;2515096;55;20946;-73
2023/10/27 05:20:38;;;;;;;2.97;1.40;;;14.80;73.70;;;;;;2513488;55;21046;-72
2023/10/27 05:23:04;;;;;;;4.18;1.35;;;14.70;73.70;;;;;;2513833;55;20967;-73
2023/10/27 05:25:30;;;;;;;2.92;1.35;;;14.70;73.80;;;;;;2281229;56;21049;-71
2023/10/27 05:27:57;;;;;;;3.53;1.20;;;14.70;73.90;;;;;;2280370;56;20976;-71
2023/10/27 05:30:24;;;;;;;3.25;1.20;;;14.70;73.90;;;;;;2280929;56;21005;-71
2023/10/27 05:32:51;;;;;;;3.78;1.25;;;14.70;74.00;;;;;;2281120;56;20978;-72
2023/10/27 05:35:17;;;;;;;2.20;1.00;;;14.70;74.10;;;;;;2513280;55;21401;-72
2023/10/27 05:37:44;;;;;;;3.33;1.20;;;14.70;74.20;;;;;;2514593;55;21026;-72
2023/10/27 05:40:16;;;;;;;2.70;1.10;;;14.70;74.30;;;;;;2514715;55;20950;-72
2023/10/27 05:42:42;;;;;;;2.67;0.90;;;14.70;74.20;;;;;;2514333;55;21380;-73
2023/10/27 05:45:11;;;;;;;2.50;0.90;;;14.70;74.30;;;;;;2281175;55;21007;-73
2023/10/27 05:47:41;;;;;;;2.17;0.70;;;14.70;74.40;;;;;;2281497;55;21038;-70
2023/10/27 05:50:08;;;;;;;1.33;0.50;;;14.70;74.40;;;;;;2514119;55;20989;-71
2023/10/27 05:52:35;;;;;;;1.98;0.70;;;14.70;74.50;;;;;;2280990;56;20961;-73
2023/10/27 05:55:04;;;;;;;2.35;0.60;;;14.70;74.60;;;;;;2281076;56;22363;-71
2023/10/27 05:57:31;;;;;;;1.37;0.43;;;14.80;74.70;;;;;;2513953;54;20958;-73
2023/10/27 05:59:57;;;;;;;1.80;0.50;;;14.70;74.60;;;;;;2514583;55;20955;-72
2023/10/27 06:02:24;;;;;;;1.50;0.57;;;14.70;74.60;;;;;;2513403;55;20970;-70
2023/10/27 06:04:51;;;;;;;1.50;0.50;;;14.80;74.70;;;;;;2282118;56;20950;-70
2023/10/27 06:07:18;;;;;;;1.00;0.40;;;14.80;74.70;;;;;;2281226;56;20950;-71
2023/10/27 06:09:44;;;;;;;1.65;0.47;;;14.80;74.70;;;;;;2514888;55;20954;-70
2023/10/27 06:12:10;;;;;;;2.00;0.60;;;14.80;74.60;;;;;;2514681;54;21342;-72
2023/10/27 06:14:49;;;;;;;1.10;0.40;;;14.80;74.60;;;;;;2281050;55;21031;-70
2023/10/27 06:17:15;;;;;;;1.05;0.40;;;14.80;74.40;;;;;;2280177;55;21014;-71
2023/10/27 06:19:44;;;;;;;1.55;0.37;;;14.80;74.60;;;;;;2281703;56;20958;-73
2023/10/27 06:22:11;;;;;;;1.60;0.45;;;14.80;74.50;;;;;;2281489;56;20966;-72
2023/10/27 06:24:37;;;;;;;1.20;0.40;;;14.80;74.60;;;;;;2514390;55;21999;-71
2023/10/27 06:27:25;;;;;;;1.27;0.40;;;14.90;74.80;;;;;;2513512;55;20958;-74
2023/10/27 06:29:51;;;;;;;1.45;0.50;;;14.90;74.50;;;;;;2282722;55;20998;-71
2023/10/27 06:32:19;;;;;;;2.80;0.52;;;14.90;74.80;;;;;;2280705;56;20938;-71
2023/10/27 06:34:45;;;;;;;2.08;0.47;;;14.90;74.80;;;;;;2282306;56;20990;-71
2023/10/27 06:37:12;;;;;;;0.85;0.30;;;14.90;74.80;;;;;;2281148;56;20958;-71
2023/10/27 06:39:39;;;;;;;1.52;0.57;;;14.90;74.80;;;;;;2281790;55;21030;-73
2023/10/27 06:42:06;;;;;;;1.42;0.52;;;14.90;74.80;;;;;;2514359;55;20962;-71
2023/10/27 06:44:32;;;;;;;3.08;0.80;;;14.90;74.80;;;;;;2281609;56;20950;-72
2023/10/27 06:47:48;;;;;;;1.45;0.50;;;14.90;74.80;;;;;;2283148;56;21814;-73
2023/10/27 06:50:16;;;;;;;1.25;0.50;;;14.90;74.50;;;;;;2277866;56;21004;-69
2023/10/27 06:52:42;;;;;;;3.65;0.68;;;14.90;74.70;;;;;;2281577;56;20954;-72
2023/10/27 06:55:09;;;;;;;1.58;0.68;;;14.90;74.80;;;;;;2513899;55;21346;-73
2023/10/27 06:57:35;;;;;;;2.47;0.70;;;15.00;74.90;;;;;;2281061;56;21023;-71
2023/10/27 07:00:01;;;;;;;2.75;0.85;;;14.90;74.80;;;;;;2266083;54;21061;-71
2023/10/27 07:02:29;;;;;;;3.00;1.08;;;14.90;74.80;;;;;;2513832;54;20938;-71
2023/10/27 07:04:59;;;;;;;3.42;0.80;;;15.00;74.90;;;;;;2282155;56;20962;-72
2023/10/27 07:07:25;;;;;;;1.75;0.85;;;15.00;74.90;;;;;;2280734;55;20962;-72
2023/10/27 07:09:53;;;;;;;1.55;0.60;;;15.00;74.90;;;;;;2514946;55;20962;-69
2023/10/27 07:12:19;;;;;;;3.08;0.98;;;15.00;74.90;;;;;;2514089;55;20982;-70
2023/10/27 07:15:04;;;;;;;3.95;1.10;;;15.10;75.00;;;;;;2281905;56;20950;-71
2023/10/27 07:17:31;;;;;;;2.75;1.00;;;15.00;74.60;;;;;;2514602;55;20938;-71
2023/10/27 07:19:57;;;;;;;2.92;1.23;;;15.00;74.90;;;;;;2281072;56;21025;-70
2023/10/27 07:22:26;;;;;;;4.75;2.20;;;15.00;74.90;;;;;;2280674;55;21089;-71
2023/10/27 07:24:52;;;;;;;4.53;2.05;;;15.00;74.80;;;;;;2282037;56;20990;-73
2023/10/27 07:27:18;;;;;;;3.53;1.52;;;15.00;74.90;;;;;;2513876;55;20934;-70
2023/10/27 07:29:46;;;;;;;3.67;1.52;;;15.00;74.90;;;;;;2281681;55;21386;-73
2023/10/27 07:32:13;;;;;;;2.85;1.10;;;15.10;75.00;;;;;;2280284;55;21054;-70
2023/10/27 07:34:39;;;;;;;3.45;1.00;;;15.10;75.00;;;;;;2514008;55;21929;-72
2023/10/27 07:37:06;;;;;;;3.05;1.12;;;15.10;75.10;;;;;;2281592;56;20879;-72
2023/10/27 07:39:32;;;;;;;3.35;1.12;;;15.20;75.20;;;;;;2281126;55;20977;-70
2023/10/27 07:41:59;;;;;;;1.80;0.60;;;15.20;75.10;;;;;;2514452;55;21962;-70
2023/10/27 07:44:25;;;;;;;1.95;0.60;;;15.10;75.00;;;;;;2513965;55;20951;-73
2023/10/27 07:46:52;;;;;;;1.12;0.50;;;15.20;75.10;;;;;;2281868;56;21026;-70
2023/10/27 07:49:20;;;;;;;1.30;0.50;;;15.20;75.10;;;;;;2513435;55;20969;-71
2023/10/27 07:51:52;;;;;;;1.50;0.55;;;15.20;75.10;;;;;;2282415;56;20942;-71
2023/10/27 07:54:19;;;;;;;1.83;0.70;;;15.20;75.00;;;;;;2279409;55;20970;-73
2023/10/27 07:56:46;;;;;;;1.98;0.60;;;15.30;75.20;;;;;;2281965;56;20942;-73
2023/10/27 07:59:14;;;;;;;1.77;0.60;;;15.30;75.20;;;;;;2281671;55;21019;-69
2023/10/27 08:01:40;;;;;;;0.52;0.28;;;15.30;75.20;;;;;;2514425;55;21002;-71
2023/10/27 08:04:06;;;;;;;1.30;0.37;;;15.30;75.20;;;;;;2299234;54;21001;-71
2023/10/27 08:06:33;;;;;;;3.28;0.70;;;15.40;75.40;;;;;;2280652;56;21492;-71
2023/10/27 08:08:59;;;;;;;1.98;0.70;;;15.30;75.40;;;;;;2281774;56;21014;-70
2023/10/27 08:11:26;;;;;;;1.73;0.70;;;15.40;75.40;;;;;;2281318;55;20971;-71
2023/10/27 08:13:53;;;;;;;1.67;0.55;;;15.40;75.50;;;;;;2508146;55;22076;-73
2023/10/27 08:16:19;;;;;;;1.60;0.60;;;15.50;75.60;;;;;;2280887;56;20954;-71
2023/10/27 08:18:46;;;;;;;1.87;0.70;;;15.50;75.70;;;;;;2283775;55;21103;-71
2023/10/27 08:21:16;;;;;;;3.55;0.50;;;15.60;75.70;;;;;;2275098;55;20918;-69
2023/10/27 08:23:42;;;;;;;1.75;0.50;;;15.60;75.60;;;;;;2514691;55;20918;-68
2023/10/27 08:26:11;;;;;;;1.50;0.60;;;15.60;75.50;;;;;;2281429;55;20994;-68
2023/10/27 08:28:37;;;;;;;2.30;0.52;;;15.60;75.30;;;;;;2281401;55;21018;-68
2023/10/27 08:31:04;;;;;;;2.08;0.40;;;15.60;75.30;;;;;;2281874;56;20962;-68
2023/10/27 08:33:30;;;;;;;3.15;0.50;;;15.70;75.30;;;;;;2513202;55;20961;-71
2023/10/27 08:36:03;;;;;;;1.75;0.50;;;15.70;75.20;;;;;;2515077;55;21542;-70
2023/10/27 08:38:29;;;;;;;2.75;0.60;;;15.70;75.00;;;;;;2281373;56;21554;-68
2023/10/27 08:40:57;;;;;;;3.42;0.80;;;15.70;75.00;;;;;;2281728;55;20986;-70
2023/10/27 08:43:23;;;;;;;1.75;0.80;;;15.70;74.90;;;;;;2281171;55;21563;-66
2023/10/27 08:45:50;;;;;;;2.55;0.70;;;15.80;75.00;;;;;;2282093;55;20950;-69
2023/10/27 08:48:17;;;;;;;2.00;0.70;;;15.80;75.00;;;;;;2281468;56;21427;-70
2023/10/27 08:50:43;;;;;;;2.40;0.75;;;15.80;74.80;;;;;;2514484;55;21011;-68
2023/10/27 08:53:14;;;;;;;2.70;0.70;;;15.80;74.80;;;;;;2515063;55;20970;-70
2023/10/27 08:55:43;;;;;;;1.80;0.57;;;15.90;74.80;;;;;;2514285;55;21129;-69
2023/10/27 08:58:11;;;;;;;3.28;0.70;;;15.80;74.80;;;;;;2515481;55;21089;-67
2023/10/27 09:00:38;;;;;;;1.48;0.70;;;15.80;74.90;;;;;;2281079;55;21803;-69
2023/10/27 09:03:14;;;;;;;2.95;0.55;;;15.80;74.90;;;;;;2515190;55;20955;-71
2023/10/27 09:05:40;;;;;;;2.42;0.57;;;15.90;74.60;;;;;;2514813;55;20966;-70
2023/10/27 09:08:07;;;;;;;3.55;0.60;;;15.90;75.00;;;;;;2515023;55;21531;-71
2023/10/27 09:10:34;;;;;;;1.50;0.68;;;15.90;75.00;;;;;;2514577;55;20946;-68
2023/10/27 09:13:00;;;;;;;3.85;0.90;;;15.90;75.10;;;;;;2282235;56;20965;-67
2023/10/27 09:15:39;;;;;;;1.50;0.55;;;15.90;75.10;;;;;;2513687;55;20938;-69
2023/10/27 09:18:08;;;;;;;2.15;0.62;;;16.00;74.80;;;;;;2281773;56;21045;-69
2023/10/27 09:20:51;;;;;;;2.75;0.70;;;16.00;75.30;;;;;;2281579;55;22067;-69
2023/10/27 09:23:19;;;;;;;3.05;0.70;;;16.00;75.10;;;;;;2505235;55;21071;-71
2023/10/27 09:25:46;;;;;;;1.42;0.52;;;16.10;75.50;;;;;;2513838;54;21062;-70
2023/10/27 09:28:12;;;;;;;1.35;0.60;;;16.10;75.50;;;;;;2281564;56;20965;-69
2023/10/27 09:30:40;;;;;;;2.90;0.62;;;16.10;75.50;;;;;;2281039;55;21025;-71
2023/10/27 09:33:26;;;;;;;3.20;0.50;;;16.10;75.40;;;;;;2280506;55;20954;-69
2023/10/27 09:35:53;;;;;;;1.15;0.47;;;16.20;74.90;;;;;;2279258;55;20954;-67
2023/10/27 09:38:23;;;;;;;2.75;0.98;;;16.20;75.40;;;;;;2280799;55;21151;-67
2023/10/27 09:40:49;;;;;;;1.58;0.50;;;16.20;75.40;;;;;;2512554;55;20958;-70
2023/10/27 09:43:20;;;;;;;2.47;0.50;;;16.30;75.60;;;;;;2281819;56;21070;-70
2023/10/27 09:46:03;;;;;;;3.22;0.70;;;16.30;75.40;;;;;;2280904;56;21151;-69
2023/10/27 09:48:30;;;;;;;3.67;0.80;;;16.30;75.30;;;;;;2280858;56;20965;-71
2023/10/27 09:51:06;;;;;;;1.83;0.60;;;16.30;75.50;;;;;;2281532;56;20950;-71
2023/10/27 09:53:33;;;;;;;5.93;0.70;;;16.40;75.10;;;;;;2280281;55;21524;-69
2023/10/27 09:56:00;;;;;;;2.92;0.60;;;16.40;75.40;;;;;;2513969;55;20954;-70
2023/10/27 09:58:33;;;;;;;3.95;0.47;;;16.40;75.30;;;;;;2513401;55;21294;-71
2023/10/27 10:01:01;;;;;;;3.20;0.50;;;16.50;75.30;;;;;;2514668;55;20966;-68
2023/10/27 10:03:27;;;;;;;3.75;0.70;;;16.50;75.10;;;;;;2280865;55;21818;-70
2023/10/27 10:06:17;;;;;;;2.25;0.70;;;16.50;75.10;;;;;;2281579;55;20969;-69
2023/10/27 10:09:05;;;;;;;3.33;0.80;;;16.50;74.40;;;;;;2284600;55;21041;-70
2023/10/27 10:13:27;;;;;;;3.75;0.60;;;16.60;74.40;;;;;;2508267;55;20980;-68
2023/10/27 10:15:58;;;;;;;1.70;0.50;;;16.60;74.80;;;;;;2514037;55;21833;-69
2023/10/27 10:19:10;;;;;;;1.85;0.68;;;16.60;74.60;;;;;;2279972;55;20965;-68
2023/10/27 10:21:40;;;;;;;3.83;0.70;;;16.60;73.80;;;;;;2514021;55;20954;-70
2023/10/27 10:24:08;;;;;;;2.08;0.50;;;16.60;74.80;;;;;;2281443;55;20966;-69
2023/10/27 10:27:02;;;;;;;4.82;1.02;;;16.60;75.00;;;;;;2512965;55;21666;-68
2023/10/27 10:29:29;;;;;;;1.98;0.62;;;16.70;74.60;;;;;;2280996;55;20982;-69
2023/10/27 10:32:31;;;;;;;0.75;0.28;;;16.70;75.20;;;;;;2282327;55;21462;-69
2023/10/27 10:35:22;;;;;;;3.20;0.65;;;16.70;74.60;;;;;;2515216;55;20985;-71
2023/10/27 10:37:51;;;;;;;3.35;0.90;;;16.80;74.60;;;;;;2513878;55;21002;-70
2023/10/27 10:40:19;;;;;;;1.95;0.50;;;16.80;75.10;;;;;;2281300;55;21440;-71
2023/10/27 10:43:23;;;;;;;4.78;0.60;;;16.80;75.30;;;;;;2508128;54;21427;-71
2023/10/27 10:45:56;;;;;;;1.73;0.62;;;16.90;74.40;;;;;;2514603;55;21010;-70
2023/10/27 10:48:26;;;;;;;2.00;0.47;;;16.90;75.00;;;;;;2280469;56;21259;-70
2023/10/27 10:50:53;;;;;;;1.48;0.50;;;16.90;75.10;;;;;;2513829;55;20977;-71
2023/10/27 10:53:24;;;;;;;1.37;0.50;;;16.90;75.30;;;;;;2513770;54;21002;-69
2023/10/27 10:55:55;;;;;;;2.83;0.55;;;17.00;75.30;;;;;;2298414;54;20948;-66
2023/10/27 10:58:32;;;;;;;2.87;0.50;;;17.00;75.40;;;;;;2514677;55;21408;-66
2023/10/27 11:00:59;;;;;;;2.87;0.50;;;17.10;75.10;;;;;;2282514;55;21063;-67
2023/10/27 11:03:28;;;;;;;3.03;0.82;;;17.10;75.20;;;;;;2281074;55;20993;-67
2023/10/27 11:05:59;;;;;;;2.05;0.60;;;17.10;75.00;;;;;;2514560;55;21136;-67
2023/10/27 11:08:29;;;;;;;1.33;0.40;;;17.10;74.80;;;;;;2281153;56;21530;-67
2023/10/27 11:11:09;;;;;;;1.62;0.50;;;17.20;75.00;;;;;;2281406;55;21248;-70
2023/10/27 11:13:45;;;;;;;1.87;0.55;;;17.20;74.70;;;;;;2280772;55;20969;-68
2023/10/27 11:16:19;;;;;;;2.87;0.70;;;17.20;74.80;;;;;;2282407;55;20974;-68
2023/10/27 11:18:47;;;;;;;1.95;0.70;;;17.30;75.20;;;;;;2281001;56;20953;-68
2023/10/27 11:21:17;;;;;;;1.92;0.52;;;17.30;75.60;;;;;;2280260;54;20955;-69
2023/10/27 11:23:44;;;;;;;3.08;0.70;;;17.40;75.50;;;;;;2277686;54;20942;-68
2023/10/27 11:26:11;;;;;;;5.18;0.70;;;17.40;75.40;;;;;;2281220;55;21751;-70
2023/10/27 11:28:38;;;;;;;5.32;0.90;;;17.50;75.30;;;;;;2280581;55;21025;-68
2023/10/27 11:31:13;;;;;;;4.40;0.70;;;17.50;75.00;;;;;;2281818;56;21002;-67
2023/10/27 11:33:58;;;;;;;2.55;0.68;;;17.50;74.90;;;;;;2282055;55;21068;-68
2023/10/27 11:36:28;;;;;;;2.33;0.65;;;17.60;74.20;;;;;;2281025;55;21017;-69
2023/10/27 11:38:54;;;;;;;3.47;0.70;;;17.60;74.90;;;;;;2513753;54;20957;-66
2023/10/27 11:41:21;;;;;;;2.70;0.60;;;17.60;74.90;;;;;;2514180;55;20942;-67
2023/10/27 11:43:47;;;;;;;1.40;0.60;;;17.60;74.90;;;;;;2514527;55;20950;-68
2023/10/27 11:46:15;;;;;;;1.98;0.60;;;17.70;75.00;;;;;;2514294;55;21354;-67
2023/10/27 11:48:45;;;;;;;1.15;0.45;;;17.70;74.80;;;;;;2514163;55;21544;-70
2023/10/27 11:51:16;;;;;;;1.83;0.68;;;17.70;74.60;;;;;;2282140;56;20970;-68
2023/10/27 11:53:43;;;;;;;1.27;0.47;;;17.70;74.50;;;;;;2280654;55;21992;-70
2023/10/27 11:56:10;;;;;;;1.83;0.50;;;17.80;74.40;;;;;;2515205;54;20990;-70
2023/10/27 11:58:36;;;;;;;0.85;0.35;;;17.80;74.30;;;;;;2281776;55;21005;-70
2023/10/27 12:01:03;;;;;;;1.85;0.50;;;17.80;74.40;;;;;;2513593;55;20999;-68
2023/10/27 12:03:29;;;;;;;1.20;0.40;;;17.80;74.00;;;;;;2280936;56;21100;-68
2023/10/27 12:05:59;;;;;;;3.67;0.77;;;17.80;74.10;;;;;;2280967;56;21013;-65
2023/10/27 12:08:29;;;;;;;2.85;0.50;;;17.80;74.20;;;;;;2281271;56;21581;-66
2023/10/27 12:10:59;;;;;;;1.98;0.40;;;17.80;74.30;;;;;;2514844;55;21752;-66
2023/10/27 12:13:25;;;;;;;1.85;0.40;;;17.80;74.40;;;;;;2277876;55;21069;-66
2023/10/27 12:15:53;;;;;;;1.80;0.30;;;17.80;74.40;;;;;;2272945;55;20974;-68
2023/10/27 12:18:20;;;;;;;2.00;0.43;;;17.80;74.30;;;;;;2281552;55;21029;-66
2023/10/27 12:20:47;;;;;;;2.40;0.50;;;17.90;74.50;;;;;;2280772;56;20986;-66
2023/10/27 12:23:13;;;;;;;0.88;0.40;;;17.90;74.50;;;;;;2277430;55;20987;-67
2023/10/27 12:25:39;;;;;;;1.80;0.50;;;17.90;74.50;;;;;;2279518;55;22105;-67
2023/10/27 12:28:07;;;;;;;0.77;0.30;;;17.90;74.50;;;;;;2510867;55;21472;-69
2023/10/27 12:30:36;;;;;;;2.33;0.52;;;17.90;74.60;;;;;;2508888;54;21212;-67
2023/10/27 12:33:04;;;;;;;3.33;0.55;;;18.00;74.80;;;;;;2281684;56;20965;-68
2023/10/27 12:35:34;;;;;;;1.30;0.40;;;18.00;74.90;;;;;;2280927;55;20969;-67
2023/10/27 12:38:01;;;;;;;2.67;0.50;;;18.10;74.80;;;;;;2515003;55;21532;-67
2023/10/27 12:40:27;;;;;;;1.90;0.30;;;18.10;74.80;;;;;;2512762;55;21033;-66
2023/10/27 12:42:54;;;;;;;1.73;0.50;;;18.10;74.40;;;;;;2281359;56;21783;-66
2023/10/27 12:45:21;;;;;;;1.83;0.40;;;18.20;74.20;;;;;;2513756;55;20945;-67
2023/10/27 12:47:50;;;;;;;1.35;0.50;;;18.10;73.70;;;;;;2280733;55;21342;-67
2023/10/27 12:50:16;;;;;;;1.45;0.40;;;18.10;73.60;;;;;;2281441;56;20958;-69
2023/10/27 12:52:43;;;;;;;1.55;0.45;;;18.10;73.30;;;;;;2280391;55;20966;-68
2023/10/27 12:55:11;;;;;;;1.75;0.60;;;18.10;73.30;;;;;;2514542;55;20947;-67
2023/10/27 12:57:37;;;;;;;0.80;0.30;;;18.10;73.20;;;;;;2280827;55;21046;-67